Time;durP1;ratioP1;P1;durP2;ratioP2;P2;SDS_P1;SDS_P2;PMS_P1;PMS_P2;Temp;Humidity;BMP_temperature;BMP_pressure;BME280_temperature;BME280_humidity;BME280_pressure;Samples;Min_cycle;Max_cycle;Signal;HPM_P1;HPM_P2
2022/09/11 00:01:32;;;;;;;0.90;0.90;;;24.80;65.70;;;;;;5048619;28;20506;-69
2022/09/11 00:04:00;;;;;;;1.00;1.00;;;24.80;65.70;;;;;;5047131;28;20441;-69
2022/09/11 00:06:28;;;;;;;1.30;1.00;;;24.80;65.70;;;;;;5035423;28;20464;-70
2022/09/11 00:08:59;;;;;;;1.10;1.00;;;24.80;65.70;;;;;;5053383;28;20479;-70
2022/09/11 00:11:31;;;;;;;1.53;0.90;;;24.80;65.70;;;;;;5053775;28;20479;-69
2022/09/11 00:14:02;;;;;;;0.73;0.73;;;24.80;65.70;;;;;;5053422;28;20432;-69
2022/09/11 00:16:33;;;;;;;0.80;0.80;;;24.80;65.70;;;;;;5052697;28;20495;-69
2022/09/11 00:19:04;;;;;;;0.63;0.63;;;24.70;65.80;;;;;;5052883;28;20452;-69
2022/09/11 00:21:32;;;;;;;0.70;0.70;;;24.70;65.80;;;;;;5052225;28;20519;-70
2022/09/11 00:24:01;;;;;;;0.77;0.77;;;24.70;65.80;;;;;;5053726;28;20444;-69
2022/09/11 00:26:29;;;;;;;0.70;0.70;;;24.70;65.80;;;;;;5052066;28;20489;-69
2022/09/11 00:28:59;;;;;;;2.40;0.93;;;24.80;65.70;;;;;;5053212;28;20516;-69
2022/09/11 00:31:31;;;;;;;0.80;0.80;;;24.70;65.70;;;;;;5051622;28;20484;-70
2022/09/11 00:33:59;;;;;;;0.77;0.73;;;24.70;65.70;;;;;;5051344;28;20462;-70
2022/09/11 00:36:30;;;;;;;0.70;0.70;;;24.70;65.70;;;;;;5050598;28;20468;-69
2022/09/11 00:39:00;;;;;;;1.03;0.90;;;24.70;65.70;;;;;;5053194;28;20508;-69
2022/09/11 00:41:30;;;;;;;1.10;1.00;;;24.70;65.70;;;;;;5052795;28;20448;-70
2022/09/11 00:44:02;;;;;;;0.60;0.60;;;24.70;65.70;;;;;;5053028;28;20434;-69
2022/09/11 00:46:38;;;;;;;0.70;0.70;;;24.70;65.80;;;;;;5051533;28;20463;-71
2022/09/11 00:49:21;;;;;;;0.70;0.70;;;24.70;65.70;;;;;;5051015;28;20522;-69
2022/09/11 00:51:53;;;;;;;1.37;1.00;;;24.70;65.70;;;;;;5051122;28;20808;-69
2022/09/11 00:54:26;;;;;;;1.93;0.77;;;24.70;65.70;;;;;;5036887;28;20977;-69
2022/09/11 00:56:56;;;;;;;1.00;0.90;;;24.70;65.70;;;;;;5052496;28;20468;-69
2022/09/11 00:59:26;;;;;;;1.47;1.03;;;24.70;65.70;;;;;;5052794;28;20450;-69
2022/09/11 01:01:57;;;;;;;0.87;0.87;;;24.70;65.70;;;;;;5049079;28;20461;-69
2022/09/11 01:04:28;;;;;;;1.37;1.27;;;24.70;65.70;;;;;;5050903;28;20550;-72
2022/09/11 01:06:58;;;;;;;1.33;0.80;;;24.70;65.70;;;;;;5051999;28;20466;-69
2022/09/11 01:09:27;;;;;;;4.90;1.10;;;24.70;65.70;;;;;;5051977;28;20437;-69
2022/09/11 01:12:05;;;;;;;2.70;0.70;;;24.70;65.70;;;;;;5051437;28;20457;-69
2022/09/11 01:14:46;;;;;;;1.43;0.80;;;24.70;65.70;;;;;;5052218;28;20535;-69
2022/09/11 01:17:26;;;;;;;0.67;0.60;;;24.70;65.70;;;;;;5048288;28;20480;-69
2022/09/11 01:20:20;;;;;;;1.50;0.90;;;24.70;65.80;;;;;;5049387;28;20500;-73
2022/09/11 01:23:24;;;;;;;0.80;0.50;;;24.70;65.80;;;;;;5049617;28;20448;-71
2022/09/11 01:26:11;;;;;;;1.00;0.90;;;24.60;65.80;;;;;;5039054;28;20969;-69
2022/09/11 01:28:45;;;;;;;1.43;0.70;;;24.70;65.80;;;;;;5046042;28;20789;-69
2022/09/11 01:31:17;;;;;;;1.60;0.83;;;24.60;65.70;;;;;;5052439;28;20878;-69
2022/09/11 01:33:50;;;;;;;0.70;0.70;;;24.60;65.70;;;;;;5051982;28;20449;-69
2022/09/11 01:36:22;;;;;;;0.73;0.73;;;24.70;65.80;;;;;;5049152;28;21453;-69
2022/09/11 01:38:53;;;;;;;0.97;0.80;;;24.60;65.80;;;;;;5052108;28;20568;-69
2022/09/11 01:41:27;;;;;;;1.27;0.90;;;24.60;65.80;;;;;;5047637;28;20453;-69
2022/09/11 01:44:03;;;;;;;0.70;0.70;;;24.60;65.80;;;;;;5030950;28;20470;-69
2022/09/11 01:46:39;;;;;;;0.83;0.83;;;24.60;65.70;;;;;;5042937;28;20462;-69
2022/09/11 01:49:14;;;;;;;2.00;0.90;;;24.70;65.80;;;;;;5051574;28;20464;-70
2022/09/11 01:51:42;;;;;;;0.70;0.70;;;24.60;65.80;;;;;;5051234;28;20541;-70
2022/09/11 01:54:15;;;;;;;1.10;1.00;;;24.60;65.80;;;;;;5052386;28;20519;-70
2022/09/11 01:56:48;;;;;;;1.07;0.87;;;24.60;65.80;;;;;;5049521;28;20964;-70
2022/09/11 01:59:24;;;;;;;1.17;0.67;;;24.60;65.80;;;;;;5041735;28;20499;-71
2022/09/11 02:02:02;;;;;;;1.17;0.93;;;24.60;65.80;;;;;;5049901;28;20466;-69
2022/09/11 02:04:37;;;;;;;0.80;0.80;;;24.60;65.80;;;;;;5050678;28;20456;-68
2022/09/11 02:07:11;;;;;;;1.53;1.00;;;24.60;65.70;;;;;;5042393;28;20464;-69
2022/09/11 02:09:46;;;;;;;0.70;0.70;;;24.60;65.70;;;;;;5050098;28;20480;-70
2022/09/11 02:12:19;;;;;;;2.30;1.17;;;24.60;65.70;;;;;;5043739;28;20468;-69
2022/09/11 02:14:51;;;;;;;0.67;0.67;;;24.60;65.70;;;;;;5047283;28;20465;-69
2022/09/11 02:17:26;;;;;;;1.17;1.07;;;24.60;65.80;;;;;;5045174;28;20479;-69
2022/09/11 02:19:56;;;;;;;1.00;0.90;;;24.60;65.80;;;;;;5052970;28;20773;-69
2022/09/11 02:22:25;;;;;;;0.73;0.73;;;24.60;65.80;;;;;;5054500;28;20429;-69
2022/09/11 02:24:53;;;;;;;2.17;0.90;;;24.60;65.80;;;;;;5054002;28;20443;-69
2022/09/11 02:27:24;;;;;;;0.83;0.80;;;24.60;65.70;;;;;;5053567;28;20501;-70
2022/09/11 02:29:55;;;;;;;1.10;0.80;;;24.60;65.80;;;;;;5053811;28;20544;-69
2022/09/11 02:32:24;;;;;;;1.00;0.90;;;24.60;65.80;;;;;;5053395;28;20476;-69
2022/09/11 02:34:54;;;;;;;0.70;0.70;;;24.60;65.70;;;;;;5052985;28;20885;-69
2022/09/11 02:37:35;;;;;;;0.90;0.90;;;24.60;65.70;;;;;;5053374;28;20534;-70
2022/09/11 02:40:21;;;;;;;0.77;0.70;;;24.60;65.80;;;;;;5070911;28;20794;-69
2022/09/11 02:43:09;;;;;;;3.90;1.07;;;24.60;65.80;;;;;;5054298;28;20486;-69
2022/09/11 02:45:52;;;;;;;0.70;0.70;;;24.60;65.80;;;;;;5054217;28;20942;-69
2022/09/11 02:48:44;;;;;;;0.90;0.90;;;24.60;65.80;;;;;;5053474;28;20534;-69
2022/09/11 02:51:23;;;;;;;0.93;0.93;;;24.60;65.80;;;;;;5053281;28;20457;-69
2022/09/11 02:54:00;;;;;;;1.67;1.00;;;24.60;65.80;;;;;;5044304;28;20493;-69
2022/09/11 02:56:36;;;;;;;2.00;0.80;;;24.60;65.70;;;;;;5039184;28;20465;-69
2022/09/11 02:59:09;;;;;;;2.10;1.30;;;24.60;65.70;;;;;;5052127;28;20794;-69
2022/09/11 03:01:50;;;;;;;0.93;0.80;;;24.60;65.80;;;;;;5050329;28;21032;-69
2022/09/11 03:04:23;;;;;;;2.47;1.00;;;24.50;65.70;;;;;;5050384;28;20459;-71
2022/09/11 03:06:53;;;;;;;1.10;0.97;;;24.50;65.80;;;;;;5051972;28;20956;-69
2022/09/11 03:09:21;;;;;;;1.10;1.00;;;24.50;65.80;;;;;;5052963;28;20472;-69
2022/09/11 03:11:53;;;;;;;0.90;0.90;;;24.50;65.90;;;;;;5051332;28;20453;-70
2022/09/11 03:14:22;;;;;;;1.10;1.10;;;24.50;65.80;;;;;;5053431;28;20451;-70
2022/09/11 03:16:51;;;;;;;0.80;0.80;;;24.50;65.80;;;;;;5052396;28;21147;-69
2022/09/11 03:19:20;;;;;;;0.83;0.80;;;24.50;65.80;;;;;;5053752;28;20535;-69
2022/09/11 03:21:49;;;;;;;1.10;1.00;;;24.50;65.80;;;;;;5052376;28;20453;-72
2022/09/11 03:24:18;;;;;;;0.87;0.87;;;24.50;65.90;;;;;;5054610;28;20494;-69
2022/09/11 03:26:46;;;;;;;0.93;0.90;;;24.50;66.00;;;;;;5052040;28;20485;-70
2022/09/11 03:29:18;;;;;;;0.63;0.63;;;24.50;66.00;;;;;;5054392;28;20957;-71
2022/09/11 03:31:46;;;;;;;1.83;0.80;;;24.50;66.00;;;;;;5053442;28;20794;-69
2022/09/11 03:34:16;;;;;;;0.70;0.70;;;24.50;66.00;;;;;;5053151;28;20443;-68
2022/09/11 03:36:46;;;;;;;0.80;0.80;;;24.50;66.00;;;;;;5051021;28;20456;-69
2022/09/11 03:39:15;;;;;;;0.87;0.87;;;24.50;66.00;;;;;;5034597;28;20487;-69
2022/09/11 03:41:43;;;;;;;1.00;1.00;;;24.50;66.00;;;;;;5043552;28;20563;-70
2022/09/11 03:44:12;;;;;;;1.63;0.87;;;24.40;66.00;;;;;;5049102;28;20466;-69
2022/09/11 03:46:40;;;;;;;2.33;0.80;;;24.50;66.00;;;;;;5051952;28;20485;-69
2022/09/11 03:49:09;;;;;;;1.63;1.03;;;24.40;66.00;;;;;;5052688;28;20456;-69
2022/09/11 03:51:38;;;;;;;1.53;1.07;;;24.40;66.00;;;;;;5047789;28;20465;-69
2022/09/11 03:54:07;;;;;;;0.73;0.70;;;24.40;66.10;;;;;;5050212;28;20465;-69
2022/09/11 03:56:36;;;;;;;0.77;0.70;;;24.40;66.00;;;;;;5047463;28;20459;-69
2022/09/11 03:59:04;;;;;;;2.30;0.80;;;24.40;66.00;;;;;;5047820;28;20838;-69
2022/09/11 04:01:34;;;;;;;0.70;0.60;;;24.40;66.00;;;;;;5052170;28;20584;-68
2022/09/11 04:04:03;;;;;;;1.20;1.10;;;24.40;66.00;;;;;;5052502;28;20468;-70
2022/09/11 04:06:37;;;;;;;1.10;1.00;;;24.40;66.00;;;;;;5050579;28;20460;-69
2022/09/11 04:09:06;;;;;;;1.27;1.00;;;24.40;66.00;;;;;;5047807;28;20481;-69
2022/09/11 04:11:37;;;;;;;1.13;0.90;;;24.40;66.00;;;;;;5047184;28;20460;-69
2022/09/11 04:14:11;;;;;;;1.80;1.20;;;24.40;66.00;;;;;;5052340;28;20463;-68
2022/09/11 04:16:40;;;;;;;1.40;0.83;;;24.40;66.00;;;;;;5051137;28;20536;-69
2022/09/11 04:19:10;;;;;;;0.70;0.70;;;24.40;66.00;;;;;;5050573;28;20488;-70
2022/09/11 04:21:39;;;;;;;0.80;0.80;;;24.40;66.00;;;;;;5050945;28;20448;-69
2022/09/11 04:24:07;;;;;;;0.97;0.80;;;24.40;66.10;;;;;;5051376;28;20459;-70
2022/09/11 04:26:36;;;;;;;1.00;0.87;;;24.40;66.00;;;;;;5047005;28;21048;-73
2022/09/11 04:29:10;;;;;;;2.23;0.90;;;24.40;66.10;;;;;;5047069;28;20468;-70
2022/09/11 04:31:40;;;;;;;1.13;0.90;;;24.40;66.00;;;;;;5048677;28;20543;-69
2022/09/11 04:34:10;;;;;;;1.20;1.10;;;24.40;66.10;;;;;;5050978;28;20465;-69
2022/09/11 04:36:40;;;;;;;0.97;0.83;;;24.40;66.10;;;;;;5043825;28;20557;-70
2022/09/11 04:39:12;;;;;;;2.03;1.20;;;24.40;66.00;;;;;;5048591;28;20558;-69
2022/09/11 04:41:43;;;;;;;3.33;1.13;;;24.40;66.00;;;;;;5049676;28;20455;-69
2022/09/11 04:44:11;;;;;;;1.97;1.13;;;24.40;66.00;;;;;;5040813;28;20541;-69
2022/09/11 04:46:44;;;;;;;3.33;1.07;;;24.40;66.00;;;;;;5049779;28;20944;-70
2022/09/11 04:49:13;;;;;;;1.53;0.90;;;24.40;66.00;;;;;;5049682;28;20550;-69
2022/09/11 04:51:44;;;;;;;1.23;0.80;;;24.40;66.10;;;;;;5066424;28;20942;-69
2022/09/11 04:54:16;;;;;;;0.97;0.87;;;24.40;66.10;;;;;;5067663;28;20819;-69
2022/09/11 04:56:45;;;;;;;0.80;0.80;;;24.40;66.10;;;;;;5050152;28;20462;-71
2022/09/11 04:59:16;;;;;;;1.40;0.80;;;24.40;66.10;;;;;;5051249;28;20568;-69
2022/09/11 05:01:49;;;;;;;2.60;0.97;;;24.40;66.10;;;;;;5045776;28;20464;-69
2022/09/11 05:04:18;;;;;;;1.90;1.17;;;24.40;66.10;;;;;;5051827;28;20449;-69
2022/09/11 05:06:55;;;;;;;0.73;0.73;;;24.40;66.10;;;;;;5049954;28;20466;-70
2022/09/11 05:09:26;;;;;;;1.03;1.03;;;24.40;66.10;;;;;;5050722;28;20460;-68
2022/09/11 05:11:56;;;;;;;0.70;0.70;;;24.40;66.10;;;;;;5051849;28;20457;-69
2022/09/11 05:14:28;;;;;;;1.53;0.90;;;24.40;66.10;;;;;;5048663;28;20481;-70
2022/09/11 05:16:57;;;;;;;0.97;0.87;;;24.40;66.10;;;;;;5050161;28;20491;-69
2022/09/11 05:19:27;;;;;;;0.90;0.90;;;24.40;66.10;;;;;;5049131;28;20848;-69
2022/09/11 05:21:57;;;;;;;3.60;1.27;;;24.40;66.10;;;;;;5041381;28;20533;-70
2022/09/11 05:24:25;;;;;;;0.90;0.90;;;24.40;66.00;;;;;;5031115;28;20561;-69
2022/09/11 05:26:54;;;;;;;0.90;0.90;;;24.40;66.10;;;;;;5047017;28;20508;-69
2022/09/11 05:29:27;;;;;;;0.97;0.90;;;24.40;66.00;;;;;;5031048;28;20466;-69
2022/09/11 05:32:04;;;;;;;0.80;0.80;;;24.40;66.10;;;;;;5030655;28;20863;-69
2022/09/11 05:34:32;;;;;;;0.80;0.80;;;24.40;66.00;;;;;;5040258;28;20535;-68
2022/09/11 05:37:02;;;;;;;1.10;0.97;;;24.40;66.00;;;;;;5047502;28;20453;-68
2022/09/11 05:39:35;;;;;;;2.40;1.00;;;24.40;66.10;;;;;;5050525;28;20981;-69
2022/09/11 05:42:05;;;;;;;0.70;0.70;;;24.40;66.00;;;;;;5050482;28;20475;-70
2022/09/11 05:44:36;;;;;;;1.37;0.93;;;24.40;66.00;;;;;;5050780;28;20491;-69
2022/09/11 05:47:06;;;;;;;1.20;1.10;;;24.40;66.00;;;;;;5049989;28;20838;-69
2022/09/11 05:49:34;;;;;;;0.90;0.90;;;24.40;66.00;;;;;;5050031;28;20471;-68
2022/09/11 05:52:04;;;;;;;0.67;0.67;;;24.30;66.10;;;;;;5049919;28;20465;-69
2022/09/11 05:54:34;;;;;;;0.90;0.90;;;24.30;66.00;;;;;;5049846;28;20469;-68
2022/09/11 05:57:04;;;;;;;0.80;0.80;;;24.30;66.10;;;;;;5050039;28;20542;-68
2022/09/11 05:59:37;;;;;;;1.23;1.13;;;24.30;66.10;;;;;;5050713;28;20511;-69
2022/09/11 06:02:05;;;;;;;1.07;0.93;;;24.30;66.10;;;;;;5050315;28;20465;-69
2022/09/11 06:04:44;;;;;;;1.07;1.07;;;24.30;66.00;;;;;;5049577;28;20825;-70
2022/09/11 06:07:14;;;;;;;1.37;0.90;;;24.30;66.00;;;;;;5049589;28;20467;-69
2022/09/11 06:09:45;;;;;;;1.30;0.97;;;24.30;66.10;;;;;;5046575;28;20835;-70
2022/09/11 06:12:14;;;;;;;2.30;0.90;;;24.30;66.10;;;;;;5046681;28;20452;-70
2022/09/11 06:14:43;;;;;;;1.43;1.03;;;24.30;66.10;;;;;;5044462;28;20459;-69
2022/09/11 06:17:13;;;;;;;1.00;0.90;;;24.40;66.00;;;;;;5045750;28;20539;-69
2022/09/11 06:19:41;;;;;;;0.60;0.60;;;24.40;66.00;;;;;;5043602;28;20916;-69
2022/09/11 06:22:10;;;;;;;0.93;0.93;;;24.40;66.00;;;;;;5049999;28;20475;-70
2022/09/11 06:24:45;;;;;;;0.83;0.83;;;24.40;65.90;;;;;;5049838;28;20464;-70
2022/09/11 06:27:15;;;;;;;1.33;0.83;;;24.40;65.90;;;;;;5045325;28;20526;-69
2022/09/11 06:29:45;;;;;;;0.87;0.83;;;24.40;65.90;;;;;;5045645;28;20477;-69
2022/09/11 06:32:13;;;;;;;1.20;1.00;;;24.40;65.80;;;;;;5045654;28;20464;-69
2022/09/11 06:34:42;;;;;;;0.70;0.70;;;24.40;65.80;;;;;;5043063;28;20878;-69
2022/09/11 06:37:13;;;;;;;0.83;0.80;;;24.40;65.80;;;;;;5046454;28;21208;-68
2022/09/11 06:39:41;;;;;;;0.70;0.70;;;24.50;65.70;;;;;;5046106;28;20539;-68
2022/09/11 06:42:16;;;;;;;0.70;0.70;;;24.50;65.80;;;;;;5043861;28;20467;-68
2022/09/11 06:44:46;;;;;;;1.00;0.90;;;24.50;65.80;;;;;;5049549;28;20509;-68
2022/09/11 06:47:18;;;;;;;1.60;0.80;;;24.50;65.70;;;;;;5050068;28;20459;-69
2022/09/11 06:49:46;;;;;;;0.70;0.70;;;24.50;65.70;;;;;;5048671;28;20490;-69
2022/09/11 06:52:21;;;;;;;0.80;0.77;;;24.50;65.60;;;;;;5041775;28;20953;-70
2022/09/11 06:55:03;;;;;;;1.57;1.47;;;24.50;65.60;;;;;;5041828;28;20468;-68
2022/09/11 06:57:33;;;;;;;1.80;1.27;;;24.50;65.60;;;;;;5047420;28;20942;-68
2022/09/11 07:00:11;;;;;;;1.13;0.90;;;24.60;65.60;;;;;;5044786;28;20474;-69
2022/09/11 07:02:41;;;;;;;0.90;0.90;;;24.60;65.40;;;;;;5041048;28;20862;-69
2022/09/11 07:05:10;;;;;;;0.80;0.80;;;24.60;65.40;;;;;;5045753;28;20468;-69
2022/09/11 07:07:40;;;;;;;3.00;0.80;;;24.60;65.40;;;;;;5049797;28;20467;-69
2022/09/11 07:10:13;;;;;;;1.83;0.80;;;24.60;65.40;;;;;;5052477;28;20488;-68
2022/09/11 07:12:43;;;;;;;0.90;0.80;;;24.60;65.40;;;;;;5052898;28;20468;-69
2022/09/11 07:15:12;;;;;;;0.80;0.80;;;24.60;65.40;;;;;;5050780;28;20977;-69
2022/09/11 07:17:41;;;;;;;0.60;0.60;;;24.60;65.40;;;;;;5055656;28;20474;-69
2022/09/11 07:20:12;;;;;;;1.47;1.37;;;24.60;65.40;;;;;;5072261;28;20576;-69
2022/09/11 07:22:40;;;;;;;0.80;0.80;;;24.60;65.60;;;;;;5063343;28;20488;-69
2022/09/11 07:25:08;;;;;;;0.80;0.80;;;24.60;65.40;;;;;;5052539;28;20462;-69
2022/09/11 07:27:39;;;;;;;0.80;0.80;;;24.70;65.40;;;;;;5051112;28;20837;-69
2022/09/11 07:30:12;;;;;;;0.70;0.70;;;24.70;65.40;;;;;;5049304;28;20509;-69
2022/09/11 07:32:43;;;;;;;1.20;1.10;;;24.70;65.40;;;;;;5051157;28;20890;-68
2022/09/11 07:35:20;;;;;;;1.33;1.23;;;24.70;65.40;;;;;;5049150;28;20551;-69
2022/09/11 07:37:50;;;;;;;0.90;0.90;;;24.70;65.40;;;;;;5049878;28;20535;-73
2022/09/11 07:40:23;;;;;;;0.83;0.83;;;24.70;65.40;;;;;;5049483;28;20486;-69
2022/09/11 07:42:51;;;;;;;0.70;0.70;;;24.70;65.40;;;;;;5047336;28;20489;-69
2022/09/11 07:45:22;;;;;;;0.83;0.60;;;24.70;65.30;;;;;;5057170;28;20884;-69
2022/09/11 07:47:52;;;;;;;1.20;0.70;;;24.80;65.20;;;;;;5050422;28;20972;-69
2022/09/11 07:50:23;;;;;;;0.90;0.83;;;24.80;65.40;;;;;;5047916;28;20531;-70
2022/09/11 07:52:51;;;;;;;1.27;1.20;;;24.80;65.10;;;;;;5051018;28;20542;-72
2022/09/11 07:55:20;;;;;;;0.83;0.83;;;24.80;65.20;;;;;;5051513;28;20486;-71
2022/09/11 07:57:50;;;;;;;1.23;1.00;;;24.80;65.10;;;;;;5050920;28;20455;-70
2022/09/11 08:00:20;;;;;;;1.30;1.20;;;24.80;65.10;;;;;;5050331;28;20485;-71
2022/09/11 08:02:49;;;;;;;2.37;1.10;;;24.90;65.20;;;;;;5052520;28;20459;-71
2022/09/11 08:05:28;;;;;;;1.57;1.10;;;24.90;65.10;;;;;;5046791;28;20522;-71
2022/09/11 08:07:57;;;;;;;1.10;1.10;;;24.90;65.00;;;;;;5065370;28;20474;-71
2022/09/11 08:10:27;;;;;;;2.33;1.70;;;24.90;65.10;;;;;;5049853;28;20824;-71
2022/09/11 08:12:57;;;;;;;1.10;1.00;;;24.90;65.20;;;;;;5071808;28;20642;-70
2022/09/11 08:15:32;;;;;;;1.53;1.03;;;25.00;65.20;;;;;;5044707;28;20489;-71
2022/09/11 08:18:03;;;;;;;1.50;1.17;;;25.00;65.00;;;;;;5045774;28;20502;-71
2022/09/11 08:20:32;;;;;;;1.30;1.30;;;25.00;65.00;;;;;;5047978;28;20468;-71
2022/09/11 08:23:01;;;;;;;1.07;1.00;;;25.00;65.00;;;;;;5062712;28;20464;-71
2022/09/11 08:25:29;;;;;;;1.10;1.00;;;25.00;65.00;;;;;;5048014;28;20541;-71
2022/09/11 08:27:59;;;;;;;2.63;1.50;;;25.00;65.00;;;;;;5046664;28;20493;-71
2022/09/11 08:30:27;;;;;;;2.53;1.10;;;25.00;65.10;;;;;;5042193;28;20794;-71
2022/09/11 08:32:55;;;;;;;1.77;1.40;;;25.00;65.10;;;;;;5066987;28;20470;-71
2022/09/11 08:35:26;;;;;;;1.37;1.37;;;25.00;65.10;;;;;;5040207;28;20554;-71
2022/09/11 08:37:54;;;;;;;1.00;1.00;;;25.00;65.40;;;;;;5048708;28;20469;-71
2022/09/11 08:40:23;;;;;;;0.90;0.90;;;25.00;65.10;;;;;;5046978;28;20463;-71
2022/09/11 08:42:54;;;;;;;2.07;1.00;;;25.10;65.10;;;;;;5047405;28;20471;-71
2022/09/11 08:45:34;;;;;;;1.40;0.97;;;25.10;65.10;;;;;;5049200;28;20472;-71
2022/09/11 08:48:08;;;;;;;2.37;1.17;;;25.10;65.10;;;;;;5046381;28;20490;-71
2022/09/11 08:50:41;;;;;;;1.07;1.07;;;25.10;65.10;;;;;;5038929;28;20475;-70
2022/09/11 08:53:15;;;;;;;3.00;1.10;;;25.10;65.10;;;;;;5046347;28;20505;-72
2022/09/11 08:55:46;;;;;;;1.87;1.20;;;25.10;65.00;;;;;;5048495;28;20467;-72
2022/09/11 08:58:25;;;;;;;1.00;1.00;;;25.10;65.00;;;;;;5080220;28;20979;-71
2022/09/11 09:01:04;;;;;;;1.53;1.30;;;25.10;65.10;;;;;;5046265;28;20510;-71
2022/09/11 09:03:50;;;;;;;1.57;1.47;;;25.20;65.20;;;;;;5044429;28;21201;-72
2022/09/11 09:06:47;;;;;;;1.40;1.30;;;25.20;65.10;;;;;;5043157;28;20555;-72
2022/09/11 09:09:28;;;;;;;2.73;1.43;;;25.20;65.00;;;;;;5041866;28;20462;-75
2022/09/11 09:12:09;;;;;;;4.27;2.07;;;25.20;64.90;;;;;;5046303;28;21222;-76
2022/09/11 09:15:00;;;;;;;1.77;1.60;;;25.20;65.10;;;;;;5047599;28;20987;-76
2022/09/11 09:17:35;;;;;;;3.67;2.10;;;25.20;65.10;;;;;;5049180;28;21093;-76
2022/09/11 09:20:10;;;;;;;7.60;1.57;;;25.20;65.30;;;;;;5044730;28;20472;-74
2022/09/11 09:22:47;;;;;;;2.30;1.57;;;25.20;65.00;;;;;;5042122;28;20482;-74
2022/09/11 09:25:19;;;;;;;2.27;1.97;;;25.20;65.10;;;;;;5041501;28;20541;-75
2022/09/11 09:27:49;;;;;;;4.47;1.83;;;25.30;65.00;;;;;;5039861;28;20506;-76
2022/09/11 09:30:20;;;;;;;1.60;1.30;;;25.30;65.00;;;;;;5042422;28;20471;-73
2022/09/11 09:32:53;;;;;;;5.23;1.70;;;25.30;65.00;;;;;;5047394;28;20818;-74
2022/09/11 09:35:25;;;;;;;3.03;1.70;;;25.30;65.00;;;;;;5040065;28;20498;-75
2022/09/11 09:37:55;;;;;;;3.17;2.30;;;25.40;64.90;;;;;;5061530;28;20475;-76
2022/09/11 09:40:25;;;;;;;1.83;1.73;;;25.40;64.90;;;;;;5049158;28;20460;-71
2022/09/11 09:43:27;;;;;;;2.90;1.63;;;25.50;64.50;;;;;;5047017;28;20483;-72
2022/09/11 09:46:08;;;;;;;1.73;1.60;;;25.50;64.50;;;;;;5047897;28;20903;-72
2022/09/11 09:48:39;;;;;;;2.33;2.13;;;25.40;64.60;;;;;;5048216;28;20519;-71
2022/09/11 09:51:12;;;;;;;4.50;2.37;;;25.40;64.60;;;;;;5045129;28;20471;-71
2022/09/11 09:53:46;;;;;;;2.50;1.90;;;25.40;64.60;;;;;;5042426;28;20451;-73
2022/09/11 09:56:17;;;;;;;3.90;2.10;;;25.40;64.80;;;;;;5046770;28;20451;-73
2022/09/11 09:58:54;;;;;;;3.20;1.77;;;25.40;64.80;;;;;;5046625;28;20937;-73
2022/09/11 10:01:45;;;;;;;2.90;1.87;;;25.30;64.80;;;;;;5039905;28;20489;-75
2022/09/11 10:04:17;;;;;;;3.70;1.77;;;25.30;64.80;;;;;;5045122;28;20922;-74
2022/09/11 10:06:47;;;;;;;4.83;2.83;;;25.30;64.90;;;;;;5045348;28;20453;-74
2022/09/11 10:09:22;;;;;;;3.10;2.80;;;25.30;65.00;;;;;;5044492;28;20455;-75
2022/09/11 10:11:57;;;;;;;5.10;2.57;;;25.40;65.00;;;;;;5046830;28;20462;-75
2022/09/11 10:14:26;;;;;;;3.83;1.93;;;25.40;64.90;;;;;;5046695;28;20475;-75
2022/09/11 10:17:23;;;;;;;3.87;2.37;;;25.40;65.00;;;;;;5043096;28;20513;-75
2022/09/11 10:19:55;;;;;;;3.60;2.70;;;25.40;65.00;;;;;;5047616;28;20451;-74
2022/09/11 10:22:29;;;;;;;4.53;2.43;;;25.40;65.10;;;;;;5036355;28;20563;-78
2022/09/11 10:25:18;;;;;;;2.70;2.50;;;25.40;65.00;;;;;;5044411;28;20459;-78
2022/09/11 10:28:03;;;;;;;4.93;2.60;;;25.50;64.80;;;;;;5044177;28;20499;-74
2022/09/11 10:30:36;;;;;;;3.10;2.40;;;25.60;64.80;;;;;;5044904;28;20984;-79
2022/09/11 10:33:08;;;;;;;8.77;3.50;;;25.70;64.70;;;;;;5042927;28;20463;-76
2022/09/11 10:35:36;;;;;;;4.60;2.70;;;25.70;64.60;;;;;;5043769;28;20453;-76
2022/09/11 10:38:17;;;;;;;7.83;2.90;;;25.80;64.50;;;;;;5050007;28;20449;-76
2022/09/11 10:41:18;;;;;;;5.70;2.87;;;25.90;64.40;;;;;;5053464;28;22118;-76
2022/09/11 10:43:54;;;;;;;5.40;2.27;;;25.90;64.40;;;;;;5045149;28;20491;-76
2022/09/11 10:46:28;;;;;;;6.00;3.03;;;26.00;64.20;;;;;;5048382;28;20444;-76
2022/09/11 10:48:59;;;;;;;5.67;2.20;;;26.10;64.20;;;;;;5054951;28;20454;-75
2022/09/11 10:51:29;;;;;;;6.87;3.07;;;26.10;64.00;;;;;;5053970;28;20439;-76
2022/09/11 10:54:06;;;;;;;6.40;3.40;;;26.20;63.80;;;;;;5052326;28;20457;-76
2022/09/11 10:56:42;;;;;;;5.03;2.93;;;26.30;63.40;;;;;;5054120;28;20467;-76
2022/09/11 10:59:17;;;;;;;5.10;2.70;;;26.40;63.20;;;;;;5054422;28;20449;-76
2022/09/11 11:01:45;;;;;;;6.00;2.73;;;26.70;62.70;;;;;;5052826;28;20417;-76
2022/09/11 11:04:14;;;;;;;7.33;3.27;;;26.90;62.30;;;;;;5053129;28;20427;-76
2022/09/11 11:06:55;;;;;;;6.33;2.67;;;27.20;61.50;;;;;;5052021;28;20446;-76
2022/09/11 11:09:34;;;;;;;5.23;3.23;;;27.50;61.10;;;;;;5052984;28;20899;-75
2022/09/11 11:12:31;;;;;;;7.40;2.70;;;27.80;60.40;;;;;;5054265;28;20444;-76
2022/09/11 11:15:38;;;;;;;4.93;2.73;;;28.00;59.90;;;;;;5050977;28;20921;-75
2022/09/11 11:18:38;;;;;;;6.37;2.63;;;28.30;59.30;;;;;;5053396;28;21012;-75
2022/09/11 11:21:19;;;;;;;6.87;2.43;;;28.50;58.80;;;;;;5025989;28;20457;-76
2022/09/11 11:23:58;;;;;;;5.33;2.70;;;28.50;58.50;;;;;;5043743;28;20482;-76
2022/09/11 11:26:38;;;;;;;3.97;3.13;;;28.40;58.50;;;;;;5054446;28;20819;-76
2022/09/11 11:29:24;;;;;;;5.07;2.70;;;28.20;58.80;;;;;;5053171;28;20423;-75
2022/09/11 11:32:19;;;;;;;6.70;3.17;;;28.10;59.20;;;;;;5050070;28;20565;-76
2022/09/11 11:35:01;;;;;;;7.30;3.30;;;28.00;59.50;;;;;;5053963;28;20816;-76
2022/09/11 11:37:34;;;;;;;4.97;3.00;;;27.90;59.30;;;;;;5053602;28;20454;-76
2022/09/11 11:40:06;;;;;;;3.10;2.80;;;27.80;59.60;;;;;;5053881;28;20442;-76
2022/09/11 11:42:39;;;;;;;3.23;2.93;;;27.80;59.70;;;;;;5054785;28;20569;-76
2022/09/11 11:45:19;;;;;;;3.03;2.63;;;27.70;59.90;;;;;;5053833;28;20895;-76
2022/09/11 11:47:49;;;;;;;4.97;3.00;;;27.70;59.90;;;;;;5054554;28;20444;-76
2022/09/11 11:50:24;;;;;;;3.03;2.73;;;27.70;59.90;;;;;;5053453;28;20460;-76
2022/09/11 11:53:06;;;;;;;2.40;2.20;;;27.60;60.10;;;;;;5053622;28;20455;-76
2022/09/11 11:55:44;;;;;;;5.17;2.50;;;27.70;59.90;;;;;;5053798;28;20442;-75
2022/09/11 11:58:21;;;;;;;6.50;2.40;;;27.90;59.80;;;;;;5052998;28;20874;-76
2022/09/11 12:00:56;;;;;;;4.67;2.30;;;28.20;59.20;;;;;;5052831;28;20454;-75
2022/09/11 12:03:33;;;;;;;3.27;2.30;;;28.50;58.60;;;;;;5053639;28;20483;-76
2022/09/11 12:06:06;;;;;;;8.80;2.80;;;28.70;58.10;;;;;;5052883;28;20435;-75
2022/09/11 12:08:42;;;;;;;4.63;2.67;;;28.70;57.90;;;;;;5054284;28;20452;-75
2022/09/11 12:11:12;;;;;;;2.80;2.27;;;28.80;57.90;;;;;;5053532;28;20903;-75
2022/09/11 12:13:43;;;;;;;3.80;2.50;;;28.80;57.70;;;;;;5053601;28;20430;-75
2022/09/11 12:16:17;;;;;;;5.60;2.80;;;28.80;57.60;;;;;;5053843;28;20422;-76
2022/09/11 12:19:04;;;;;;;3.60;2.70;;;28.70;57.90;;;;;;5053949;28;20429;-76
2022/09/11 12:21:41;;;;;;;2.90;2.70;;;28.90;57.70;;;;;;5052619;28;20468;-75
2022/09/11 12:24:16;;;;;;;2.77;2.57;;;29.10;57.20;;;;;;5053101;28;20480;-75
2022/09/11 12:26:44;;;;;;;3.97;2.37;;;29.30;56.80;;;;;;5053112;28;20488;-75
2022/09/11 12:29:50;;;;;;;4.40;2.70;;;29.30;56.70;;;;;;5053633;28;20916;-76
2022/09/11 12:32:39;;;;;;;3.80;2.60;;;29.10;57.00;;;;;;5052321;28;20452;-76
2022/09/11 12:35:19;;;;;;;2.57;2.27;;;28.80;57.50;;;;;;5052536;28;20531;-76
2022/09/11 12:37:55;;;;;;;5.20;2.40;;;28.50;58.10;;;;;;5052920;28;20446;-75
2022/09/11 12:40:31;;;;;;;2.20;2.00;;;28.30;58.50;;;;;;5052895;28;20446;-76
2022/09/11 12:43:16;;;;;;;3.90;2.20;;;28.20;58.80;;;;;;5053678;28;20459;-76
2022/09/11 12:45:47;;;;;;;2.10;2.00;;;28.30;58.70;;;;;;5051745;28;20435;-76
2022/09/11 12:48:20;;;;;;;4.13;2.73;;;28.30;58.60;;;;;;5052944;28;20427;-76
2022/09/11 12:50:50;;;;;;;3.63;3.33;;;28.50;58.50;;;;;;5032508;28;20437;-75
2022/09/11 12:53:23;;;;;;;3.20;2.77;;;28.60;58.10;;;;;;5049754;28;20443;-76
2022/09/11 12:55:57;;;;;;;1.90;1.67;;;28.70;57.90;;;;;;5051859;28;20543;-76
2022/09/11 12:58:32;;;;;;;4.40;2.27;;;28.70;57.90;;;;;;5053460;28;20804;-75
2022/09/11 13:01:15;;;;;;;3.40;3.10;;;28.80;57.80;;;;;;5052692;28;20831;-76
2022/09/11 13:03:56;;;;;;;3.17;2.30;;;28.70;57.90;;;;;;5052796;28;20473;-76
2022/09/11 13:06:35;;;;;;;4.33;2.30;;;28.60;58.10;;;;;;5051916;28;20454;-76
2022/09/11 13:09:04;;;;;;;2.67;2.47;;;28.60;58.10;;;;;;5049267;28;20451;-76
2022/09/11 13:11:51;;;;;;;3.60;3.10;;;28.60;58.10;;;;;;5051456;28;20453;-76
2022/09/11 13:14:47;;;;;;;2.53;2.27;;;28.40;58.40;;;;;;5065195;28;20457;-76
2022/09/11 13:17:28;;;;;;;3.90;2.13;;;28.30;58.70;;;;;;5040951;28;20844;-76
2022/09/11 13:20:19;;;;;;;3.50;2.30;;;28.30;58.70;;;;;;5052379;28;20434;-76
2022/09/11 13:22:48;;;;;;;3.60;2.40;;;28.40;58.50;;;;;;5053088;28;20444;-75